createdAt,value
2023-01-30T00:00:36.983Z,99952.45
2023-01-30T00:03:08.591Z,99945.70
2023-01-30T00:05:39.958Z,99942.48
2023-01-30T00:08:11.370Z,99944.97
2023-01-30T00:10:43.132Z,99941.83
2023-01-30T00:13:16.053Z,99938.23
2023-01-30T00:15:47.505Z,99926.87
2023-01-30T00:18:19.098Z,99924.07
2023-01-30T00:20:50.704Z,99924.83
2023-01-30T00:23:22.157Z,99915.77
2023-01-30T00:25:53.581Z,99907.73
2023-01-30T00:28:25.514Z,99898.62
2023-01-30T00:30:58.111Z,99892.34
2023-01-30T00:33:30.486Z,99888.27
2023-01-30T00:36:04.587Z,99886.01
2023-01-30T00:38:36.073Z,99879.55
2023-01-30T00:41:07.829Z,99874.85
2023-01-30T00:43:56.894Z,99863.88
2023-01-30T00:46:49.940Z,99858.53
2023-01-30T00:49:21.633Z,99853.88
2023-01-30T00:51:53.110Z,99844.08
2023-01-30T00:54:24.930Z,99841.23
2023-01-30T00:56:56.453Z,99840.11
2023-01-30T00:59:27.899Z,99828.45
2023-01-30T01:01:59.475Z,99822.35
2023-01-30T01:04:31.157Z,99811.77
2023-01-30T01:07:02.616Z,99804.64
2023-01-30T01:09:33.945Z,99798.96
2023-01-30T01:12:06.033Z,99793.84
2023-01-30T01:14:37.453Z,99797.17
2023-01-30T01:17:09.245Z,99786.11
2023-01-30T01:19:40.696Z,99778.62
2023-01-30T01:22:12.223Z,99772.85
2023-01-30T01:24:43.615Z,99764.38
2023-01-30T01:27:15.022Z,99760.77
2023-01-30T01:29:46.443Z,99750.76
2023-01-30T01:32:18.034Z,99745.98
2023-01-30T01:34:49.492Z,99736.73
2023-01-30T01:37:20.960Z,99730.38
2023-01-30T01:40:09.980Z,99732.80
2023-01-30T01:42:42.269Z,99732.50
2023-01-30T01:45:21.619Z,99732.58
2023-01-30T01:48:04.262Z,99724.77
2023-01-30T01:50:43.974Z,99725.06
2023-01-30T01:53:19.190Z,99727.64
2023-01-30T01:55:54.009Z,99726.08
2023-01-30T01:58:31.229Z,99715.05
2023-01-30T02:01:03.467Z,99707.80
2023-01-30T02:03:39.283Z,99704.86
2023-01-30T02:06:12.583Z,99710.94
2023-01-30T02:08:48.143Z,99705.30
2023-01-30T02:14:42.130Z,99694.71
2023-01-30T02:17:13.876Z,99685.48
2023-01-30T02:19:53.268Z,99679.88
2023-01-30T02:22:57.320Z,99673.30
2023-01-30T02:26:01.527Z,99675.70
2023-01-30T02:28:59.465Z,99666.70
2023-01-30T02:31:40.612Z,99661.19
2023-01-30T02:34:32.683Z,99657.02
2023-01-30T02:37:16.433Z,99650.50
2023-01-30T02:40:01.516Z,99646.44
2023-01-30T02:42:39.348Z,99644.65
2023-01-30T02:45:20.712Z,99633.71
2023-01-30T02:47:57.696Z,99625.67
2023-01-30T02:50:32.513Z,99618.40
2023-01-30T02:53:02.649Z,99617.95
2023-01-30T02:55:34.598Z,99611.40
2023-01-30T02:58:07.199Z,99600.04
2023-01-30T03:01:04.477Z,99592.48
2023-01-30T03:03:53.960Z,99594.08
2023-01-30T03:06:44.239Z,99584.89
2023-01-30T03:09:31.682Z,99584.96
2023-01-30T03:12:11.219Z,99579.95
2023-01-30T03:14:49.337Z,99569.17
2023-01-30T03:17:25.079Z,99557.89
2023-01-30T03:19:57.900Z,99551.13
2023-01-30T03:22:29.666Z,99537.86
2023-01-30T03:25:01.325Z,99528.21
2023-01-30T03:27:35.215Z,99511.58
2023-01-30T03:30:08.258Z,99504.93
2023-01-30T03:32:39.783Z,99498.64
2023-01-30T03:35:12.381Z,99500.30
2023-01-30T03:37:43.930Z,99494.52
2023-01-30T03:40:18.741Z,99487.80
2023-01-30T03:42:48.397Z,99477.85
2023-01-30T03:45:20.320Z,99471.41
2023-01-30T03:47:52.248Z,99471.30
2023-01-30T03:50:23.862Z,99468.68
2023-01-30T03:52:55.699Z,99463.91
2023-01-30T03:55:27.381Z,99450.64
2023-01-30T03:58:00.155Z,99445.88
2023-01-30T04:00:31.945Z,99439.08
2023-01-30T04:03:03.596Z,99437.77
2023-01-30T04:05:35.237Z,99434.78
2023-01-30T04:08:07.081Z,99420.88
2023-01-30T04:10:38.656Z,99414.45
2023-01-30T04:13:10.564Z,99411.70
2023-01-30T04:15:42.195Z,99402.53
2023-01-30T04:18:13.927Z,99403.30
2023-01-30T04:20:45.476Z,99394.83
2023-01-30T04:23:17.032Z,99387.33
2023-01-30T04:25:50.944Z,99390.61
2023-01-30T04:28:22.547Z,99386.39
2023-01-30T04:30:55.858Z,99377.72
2023-01-30T04:33:27.453Z,99379.61
2023-01-30T04:36:06.839Z,99365.70
2023-01-30T04:38:44.675Z,99358.77
2023-01-30T04:41:22.779Z,99354.19
2023-01-30T04:44:03.114Z,99349.77
2023-01-30T04:46:34.637Z,99351.98
2023-01-30T04:49:06.326Z,99355.52
2023-01-30T04:51:39.483Z,99356.27
2023-01-30T04:54:11.105Z,99359.56
2023-01-30T04:56:42.677Z,99355.09
2023-01-30T04:59:16.270Z,99352.01
2023-01-30T05:01:47.966Z,99337.45
2023-01-30T05:04:19.591Z,99327.61
2023-01-30T05:06:51.470Z,99320.60
2023-01-30T05:09:22.996Z,99302.35
2023-01-30T05:11:54.490Z,99286.96
2023-01-30T05:14:26.102Z,99282.20
2023-01-30T05:16:57.682Z,99289.66
2023-01-30T05:19:30.036Z,99279.63
2023-01-30T05:22:01.798Z,99269.56
2023-01-30T05:24:33.397Z,99262.65
2023-01-30T05:27:06.682Z,99259.20
2023-01-30T05:29:38.281Z,99260.47
2023-01-30T05:32:12.531Z,99256.54
2023-01-30T05:34:44.217Z,99257.08
2023-01-30T05:37:16.130Z,99245.30
2023-01-30T05:39:47.864Z,99242.45
2023-01-30T05:42:19.414Z,99236.42
2023-01-30T05:44:50.987Z,99236.14
2023-01-30T05:47:22.684Z,99226.73
2023-01-30T05:49:55.648Z,99227.44
2023-01-30T05:52:27.262Z,99217.52
2023-01-30T05:54:58.943Z,99207.65
2023-01-30T05:57:30.531Z,99200.77
2023-01-30T06:00:02.135Z,99204.30
2023-01-30T06:02:33.778Z,99194.85
2023-01-30T06:05:05.492Z,99198.29
2023-01-30T06:07:37.121Z,99192.98
2023-01-30T06:10:10.115Z,99188.88
2023-01-30T06:12:41.730Z,99190.73
2023-01-30T06:15:15.224Z,99188.13
2023-01-30T06:17:47.510Z,99199.29
2023-01-30T06:20:19.521Z,99207.51
2023-01-30T06:22:51.203Z,99211.52
2023-01-30T06:25:22.766Z,99207.20
2023-01-30T06:27:54.337Z,99197.63
2023-01-30T06:30:26.072Z,99186.29
2023-01-30T06:32:57.674Z,99188.83
2023-01-30T06:35:29.645Z,99184.17
2023-01-30T06:38:01.512Z,99172.45
2023-01-30T06:40:33.580Z,99162.11
2023-01-30T06:43:05.958Z,99157.49
2023-01-30T06:45:37.524Z,99158.43
2023-01-30T06:48:10.301Z,99154.38
2023-01-30T06:50:41.921Z,99153.73
2023-01-30T06:53:14.515Z,99151.05
2023-01-30T06:55:46.113Z,99149.09
2023-01-30T06:58:18.242Z,99146.81
2023-01-30T07:00:49.962Z,99136.63
2023-01-30T07:03:21.928Z,99125.29
2023-01-30T07:05:53.498Z,99120.85
2023-01-30T07:08:25.295Z,99128.67
2023-01-30T07:10:58.701Z,99128.06
2023-01-30T07:13:30.235Z,99128.95
2023-01-30T07:16:01.928Z,99122.66
2023-01-30T07:18:34.299Z,99109.30
2023-01-30T07:21:06.089Z,99103.43
2023-01-30T07:23:37.826Z,99089.58
2023-01-30T07:26:10.054Z,99080.66
2023-01-30T07:28:41.779Z,99076.05
2023-01-30T07:31:13.713Z,99069.04
2023-01-30T07:33:45.394Z,99065.37
2023-01-30T07:36:17.276Z,99062.45
2023-01-30T07:38:51.532Z,99058.58
2023-01-30T07:41:23.178Z,99059.69
2023-01-30T07:43:55.013Z,99054.77
2023-01-30T07:46:26.750Z,99058.19
2023-01-30T07:48:59.880Z,99057.95
2023-01-30T07:51:32.723Z,99061.28
2023-01-30T07:54:04.448Z,99057.64
2023-01-30T07:56:36.515Z,99057.76
2023-01-30T07:59:08.112Z,99060.52
2023-01-30T08:01:40.072Z,99054.72
2023-01-30T08:04:11.862Z,99050.76
2023-01-30T08:06:43.677Z,99051.02
2023-01-30T08:09:15.482Z,99051.00
2023-01-30T08:11:47.085Z,99049.05
2023-01-30T08:14:19.113Z,99036.52
2023-01-30T08:16:52.711Z,99038.83
2023-01-30T08:19:24.445Z,99038.52
2023-01-30T08:21:57.651Z,99040.10
2023-01-30T08:24:29.482Z,99040.21
2023-01-30T08:27:01.117Z,99038.44
2023-01-30T08:29:33.192Z,99040.88
2023-01-30T08:32:05.328Z,99034.89
2023-01-30T08:34:37.716Z,99033.23
2023-01-30T08:37:09.383Z,99024.03
2023-01-30T08:39:41.107Z,99015.58
2023-01-30T08:42:12.771Z,99010.98
2023-01-30T08:44:44.648Z,99003.78
2023-01-30T08:47:16.346Z,99003.39
2023-01-30T08:49:48.061Z,98997.15
2023-01-30T08:52:19.713Z,98994.70
2023-01-30T08:54:51.520Z,99003.66
2023-01-30T08:57:23.224Z,98998.48
2023-01-30T08:59:55.207Z,98988.33
2023-01-30T09:02:27.191Z,98989.36
2023-01-30T09:04:58.922Z,98983.15
2023-01-30T09:07:30.564Z,98967.77
2023-01-30T09:10:02.642Z,98971.38
2023-01-30T09:12:34.624Z,98958.56
2023-01-30T09:15:07.317Z,98952.97
2023-01-30T09:17:39.603Z,98963.55
2023-01-30T09:20:14.661Z,98964.52
2023-01-30T09:22:46.360Z,98966.41
2023-01-30T09:25:18.578Z,98954.83
2023-01-30T09:27:52.795Z,98949.95
2023-01-30T09:30:24.810Z,98949.61
2023-01-30T09:32:56.516Z,98935.75
2023-01-30T09:35:28.869Z,98934.54
2023-01-30T09:38:01.828Z,98931.39
2023-01-30T09:40:40.154Z,98926.86
2023-01-30T09:43:22.777Z,98921.85
2023-01-30T09:46:26.091Z,98918.96
2023-01-30T09:49:08.030Z,98918.85
2023-01-30T09:51:57.682Z,98916.86
2023-01-30T09:54:33.877Z,98902.70
2023-01-30T09:57:22.205Z,98900.30
2023-01-30T10:00:04.530Z,98893.48
2023-01-30T10:02:49.161Z,98892.11
2023-01-30T10:05:21.457Z,98884.57
2023-01-30T10:08:13.586Z,98881.39
2023-01-30T10:11:04.326Z,98879.69
2023-01-30T10:13:56.522Z,98872.28
2023-01-30T10:16:37.915Z,98866.23
2023-01-30T10:19:36.256Z,98863.80
2023-01-30T10:22:18.758Z,98858.22
2023-01-30T10:25:01.104Z,98855.45
2023-01-30T10:27:33.759Z,98851.89
2023-01-30T10:30:09.867Z,98852.84
2023-01-30T10:32:48.667Z,98846.65
2023-01-30T10:35:26.184Z,98836.90
2023-01-30T10:38:06.487Z,98835.65
2023-01-30T10:40:44.238Z,98833.20
2023-01-30T10:43:22.551Z,98822.90
2023-01-30T10:46:03.288Z,98819.48
2023-01-30T10:48:54.978Z,98820.10
2023-01-30T10:51:46.469Z,98816.84
2023-01-30T10:54:25.158Z,98816.98
2023-01-30T10:57:05.524Z,98813.72
2023-01-30T10:59:51.469Z,98806.39
2023-01-30T11:02:37.867Z,98800.79
2023-01-30T11:05:17.803Z,98797.44
2023-01-30T11:07:51.189Z,98797.98
2023-01-30T11:10:25.200Z,98790.67
2023-01-30T11:13:00.613Z,98790.56
2023-01-30T11:15:46.258Z,98792.98
2023-01-30T11:21:20.286Z,98783.83
2023-01-30T11:23:52.698Z,98770.09
2023-01-30T11:26:34.725Z,98768.49
2023-01-30T11:29:30.887Z,98764.59
2023-01-30T11:32:06.136Z,98767.55
2023-01-30T11:34:38.356Z,98757.00
2023-01-30T11:37:29.262Z,98755.27
2023-01-30T11:40:09.466Z,98758.38
2023-01-30T11:42:47.965Z,98761.27
2023-01-30T11:45:21.674Z,98748.73
2023-01-30T11:48:02.190Z,98739.72
2023-01-30T11:50:41.636Z,98728.59
2023-01-30T11:53:41.736Z,98722.87
2023-01-30T11:56:23.139Z,98720.66
2023-01-30T11:59:00.204Z,98721.27
2023-01-30T12:01:34.581Z,98724.77
2023-01-30T12:04:10.843Z,98711.97
2023-01-30T12:06:45.463Z,98711.83
2023-01-30T12:09:42.629Z,98711.89
2023-01-30T12:12:32.101Z,98709.31
2023-01-30T12:15:24.590Z,98710.56
2023-01-30T12:18:06.400Z,98714.86
2023-01-30T12:20:48.153Z,98716.52
2023-01-30T12:23:29.095Z,98714.90
2023-01-30T12:26:07.160Z,98717.13
2023-01-30T12:28:48.545Z,98709.00
2023-01-30T12:31:27.903Z,98703.60
2023-01-30T12:33:59.532Z,98700.47
2023-01-30T12:36:43.133Z,98702.39
2023-01-30T12:39:37.027Z,98702.04
2023-01-30T12:42:26.073Z,98707.92
2023-01-30T12:45:16.065Z,98710.77
2023-01-30T12:48:10.257Z,98713.39
2023-01-30T12:50:57.200Z,98717.82
2023-01-30T12:53:42.785Z,98718.48
2023-01-30T12:56:50.203Z,98723.27
2023-01-30T12:59:28.070Z,98717.80
2023-01-30T13:02:20.945Z,98720.02
2023-01-30T13:05:06.772Z,98714.85
2023-01-30T13:07:47.255Z,98711.38
2023-01-30T13:10:30.171Z,98708.14
2023-01-30T13:13:13.446Z,98711.05
2023-01-30T13:15:53.326Z,98707.14
2023-01-30T13:18:33.858Z,98702.58
2023-01-30T13:21:13.064Z,98702.67
2023-01-30T13:23:58.958Z,98705.30
2023-01-30T13:26:35.773Z,98708.50
2023-01-30T13:29:14.077Z,98709.77
2023-01-30T13:31:52.139Z,98712.20
2023-01-30T13:34:33.134Z,98705.87
2023-01-30T13:37:09.163Z,98705.94
2023-01-30T13:39:46.400Z,98708.42
2023-01-30T13:42:27.278Z,98709.59
2023-01-30T13:45:00.235Z,98709.81
2023-01-30T13:47:45.143Z,98708.63
2023-01-30T13:50:34.974Z,98711.85
2023-01-30T13:53:12.944Z,98710.70
2023-01-30T13:55:53.613Z,98710.10
2023-01-30T13:58:44.453Z,98706.41
2023-01-30T14:01:16.825Z,98709.61
2023-01-30T14:03:48.504Z,98704.42
2023-01-30T14:06:40.951Z,98706.62
2023-01-30T14:09:33.496Z,98708.67
2023-01-30T14:12:07.366Z,98709.10
2023-01-30T14:14:41.715Z,98713.86
2023-01-30T14:17:19.180Z,98717.58
2023-01-30T14:19:59.826Z,98724.30
2023-01-30T14:22:38.643Z,98725.36
2023-01-30T14:25:46.707Z,98728.23
2023-01-30T14:28:55.849Z,98729.75
2023-01-30T14:31:56.947Z,98724.91
2023-01-30T14:35:14.315Z,98717.38
2023-01-30T14:38:11.589Z,98706.05
2023-01-30T14:41:07.136Z,98710.37
2023-01-30T14:43:40.896Z,98706.10
2023-01-30T14:46:37.531Z,98706.39
2023-01-30T14:49:32.937Z,98705.63
2023-01-30T14:52:06.728Z,98698.77
2023-01-30T14:54:52.716Z,98695.71
2023-01-30T14:57:33.045Z,98693.34
2023-01-30T15:00:18.546Z,98697.55
2023-01-30T15:02:58.973Z,98696.52
2023-01-30T15:05:35.686Z,98698.27
2023-01-30T15:08:13.533Z,98697.26
2023-01-30T15:11:10.291Z,98698.30
2023-01-30T15:13:59.452Z,98698.11
2023-01-30T15:17:03.347Z,98701.03
2023-01-30T15:20:02.101Z,98705.35
2023-01-30T15:22:45.029Z,98714.88
2023-01-30T15:25:37.553Z,98708.48
2023-01-30T15:28:22.376Z,98709.98
2023-01-30T15:31:05.940Z,98716.05
2023-01-30T15:33:47.125Z,98715.95
2023-01-30T15:36:29.479Z,98719.23
2023-01-30T15:39:04.199Z,98725.16
2023-01-30T15:41:43.129Z,98730.27
2023-01-30T15:44:41.187Z,98734.41
2023-01-30T15:47:33.374Z,98733.89
2023-01-30T15:50:08.562Z,98733.66
2023-01-30T15:52:46.769Z,98730.59
2023-01-30T15:55:26.305Z,98728.65
2023-01-30T15:58:02.331Z,98735.61
2023-01-30T16:00:37.322Z,98735.16
2023-01-30T16:03:16.168Z,98735.65
2023-01-30T16:05:52.906Z,98742.14
2023-01-30T16:08:27.317Z,98744.27
2023-01-30T16:11:01.021Z,98751.60
2023-01-30T16:13:35.699Z,98756.36
2023-01-30T16:16:13.821Z,98757.58
2023-01-30T16:18:51.651Z,98751.60
2023-01-30T16:21:26.891Z,98753.51
2023-01-30T16:24:03.502Z,98757.79
2023-01-30T16:26:37.001Z,98761.55
2023-01-30T16:29:15.708Z,98754.67
2023-01-30T16:31:52.008Z,98747.17
2023-01-30T16:34:32.411Z,98743.29
2023-01-30T16:37:08.341Z,98748.77
2023-01-30T16:39:41.734Z,98748.36
2023-01-30T16:42:27.077Z,98743.40
2023-01-30T16:45:22.608Z,98739.02
2023-01-30T16:47:54.285Z,98736.42
2023-01-30T16:50:29.325Z,98738.31
2023-01-30T16:53:03.093Z,98742.70
2023-01-30T16:55:36.120Z,98746.34
2023-01-30T16:58:08.120Z,98746.20
2023-01-30T17:00:43.317Z,98751.96
2023-01-30T17:03:27.161Z,98753.62
2023-01-30T17:06:02.700Z,98757.54
2023-01-30T17:08:52.862Z,98751.36
2023-01-30T17:11:37.831Z,98747.20
2023-01-30T17:14:26.688Z,98759.05
2023-01-30T17:17:07.973Z,98759.67
2023-01-30T17:19:40.279Z,98745.94
2023-01-30T17:22:24.768Z,98748.05
2023-01-30T17:25:00.547Z,98749.70
2023-01-30T17:27:37.761Z,98752.66
2023-01-30T17:30:18.189Z,98756.39
2023-01-30T17:32:51.464Z,98762.64
2023-01-30T17:35:24.007Z,98763.38
2023-01-30T17:38:04.760Z,98773.02
2023-01-30T17:40:40.448Z,98769.19
2023-01-30T17:43:16.159Z,98767.46
2023-01-30T17:45:48.844Z,98770.58
2023-01-30T17:48:24.807Z,98764.95
2023-01-30T17:50:56.975Z,98755.38
2023-01-30T17:53:30.180Z,98768.73
2023-01-30T17:56:03.419Z,98780.48
2023-01-30T17:58:37.069Z,98783.39
2023-01-30T18:01:10.339Z,98783.52
2023-01-30T18:03:45.073Z,98780.51
2023-01-30T18:06:20.472Z,98789.23
2023-01-30T18:08:54.272Z,98790.71
2023-01-30T18:11:27.562Z,98793.31
2023-01-30T18:14:02.110Z,98793.33
2023-01-30T18:16:36.352Z,98785.80
2023-01-30T18:19:14.287Z,98789.36
2023-01-30T18:21:48.070Z,98787.59
2023-01-30T18:24:21.309Z,98796.20
2023-01-30T18:26:58.442Z,98797.05
2023-01-30T18:29:36.710Z,98794.04
2023-01-30T18:32:11.317Z,98788.86
2023-01-30T18:34:44.876Z,98793.31
2023-01-30T18:37:18.023Z,98791.39
2023-01-30T18:39:51.301Z,98785.08
2023-01-30T18:42:24.824Z,98792.33
2023-01-30T18:44:58.917Z,98794.52
2023-01-30T18:47:34.575Z,98791.50
2023-01-30T18:50:21.308Z,98796.83
2023-01-30T18:52:55.072Z,98793.11
2023-01-30T18:55:31.169Z,98789.30
2023-01-30T18:58:05.327Z,98796.98
2023-01-30T19:00:39.431Z,98794.08
2023-01-30T19:03:17.104Z,98788.82
2023-01-30T19:05:51.800Z,98788.16
2023-01-30T19:08:30.641Z,98783.31
2023-01-30T19:11:24.149Z,98785.52
2023-01-30T19:13:58.539Z,98788.59
2023-01-30T19:16:41.189Z,98792.63
2023-01-30T19:19:15.499Z,98791.69
2023-01-30T19:21:52.538Z,98791.27
2023-01-30T19:24:28.210Z,98797.11
2023-01-30T19:27:08.236Z,98803.05
2023-01-30T19:29:44.329Z,98808.23
2023-01-30T19:32:19.647Z,98812.42
2023-01-30T19:35:05.055Z,98815.13
2023-01-30T19:37:39.383Z,98816.39
2023-01-30T19:40:24.086Z,98823.77
2023-01-30T19:43:05.717Z,98823.49
2023-01-30T19:45:45.187Z,98825.27
2023-01-30T19:48:18.875Z,98824.83
2023-01-30T19:50:52.703Z,98825.08
2023-01-30T19:53:27.732Z,98833.70
2023-01-30T19:56:01.818Z,98834.89
2023-01-30T19:58:37.373Z,98838.14
2023-01-30T20:01:21.234Z,98841.95
2023-01-30T20:03:55.469Z,98849.81
2023-01-30T20:06:36.765Z,98851.70
2023-01-30T20:09:14.582Z,98849.32
2023-01-30T20:11:51.687Z,98848.68
2023-01-30T20:14:25.313Z,98853.85
2023-01-30T20:16:58.528Z,98853.71
2023-01-30T20:19:33.035Z,98861.89
2023-01-30T20:22:09.298Z,98859.58
2023-01-30T20:24:49.179Z,98860.11
2023-01-30T20:27:22.963Z,98862.42
2023-01-30T20:29:57.962Z,98869.95
2023-01-30T20:32:34.589Z,98868.92
2023-01-30T20:35:09.619Z,98875.35
2023-01-30T20:37:45.206Z,98875.50
2023-01-30T20:40:20.357Z,98869.20
2023-01-30T20:42:53.685Z,98872.64
2023-01-30T20:45:29.830Z,98875.30
2023-01-30T20:48:04.336Z,98880.05
2023-01-30T20:50:38.589Z,98881.08
2023-01-30T20:53:13.390Z,98883.92
2023-01-30T20:55:45.355Z,98889.66
2023-01-30T20:58:19.496Z,98896.61
2023-01-30T21:00:53.224Z,98903.45
2023-01-30T21:03:28.486Z,98904.84
2023-01-30T21:06:03.514Z,98908.45
2023-01-30T21:08:39.491Z,98912.79
2023-01-30T21:11:15.302Z,98907.16
2023-01-30T21:13:48.410Z,98916.73
2023-01-30T21:16:24.390Z,98919.95
2023-01-30T21:19:00.167Z,98922.56
2023-01-30T21:21:38.968Z,98928.75
2023-01-30T21:24:15.838Z,98922.05
2023-01-30T21:26:49.092Z,98926.26
2023-01-30T21:29:24.421Z,98934.02
2023-01-30T21:31:57.303Z,98936.73
2023-01-30T21:34:30.900Z,98936.17
2023-01-30T21:37:20.037Z,98932.32
2023-01-30T21:40:09.232Z,98928.70
2023-01-30T21:42:58.937Z,98933.74
2023-01-30T21:45:31.095Z,98934.50
2023-01-30T21:48:02.708Z,98932.30
2023-01-30T21:50:34.757Z,98940.35
2023-01-30T21:53:06.557Z,98945.49
2023-01-30T21:55:38.139Z,98944.27
2023-01-30T21:58:09.739Z,98942.50
2023-01-30T22:00:41.464Z,98950.80
2023-01-30T22:03:13.151Z,98944.01
2023-01-30T22:05:48.016Z,98951.50
2023-01-30T22:08:17.783Z,98958.11
2023-01-30T22:10:49.474Z,98959.65
2023-01-30T22:13:21.107Z,98966.52
2023-01-30T22:15:53.358Z,98971.03
2023-01-30T22:18:25.071Z,98981.45
2023-01-30T22:21:01.780Z,98986.37
2023-01-30T22:23:37.362Z,98985.84
2023-01-30T22:26:10.024Z,98984.18
2023-01-30T22:28:41.985Z,98993.50
2023-01-30T22:31:15.334Z,98997.23
2023-01-30T22:33:49.706Z,98993.98
2023-01-30T22:36:22.514Z,98988.36
2023-01-30T22:38:54.521Z,99003.93
2023-01-30T22:41:27.682Z,99003.36
2023-01-30T22:44:00.788Z,99009.70
2023-01-30T22:46:34.133Z,99018.35
2023-01-30T22:49:07.154Z,99024.61
2023-01-30T22:51:41.344Z,99017.93
2023-01-30T22:54:16.291Z,99017.80
2023-01-30T22:56:49.982Z,99013.35
2023-01-30T22:59:22.103Z,99016.98
2023-01-30T23:01:54.010Z,99014.73
2023-01-30T23:04:26.780Z,99018.23
2023-01-30T23:06:59.899Z,99018.86
2023-01-30T23:09:31.552Z,99020.88
2023-01-30T23:12:20.282Z,99014.14
2023-01-30T23:14:52.617Z,99019.43
2023-01-30T23:17:42.902Z,99015.50
2023-01-30T23:20:16.266Z,99016.40
2023-01-30T23:22:51.471Z,99019.69
2023-01-30T23:25:23.803Z,99020.72
2023-01-30T23:27:55.481Z,99022.00
2023-01-30T23:30:27.209Z,99026.57
2023-01-30T23:32:59.292Z,99023.34
2023-01-30T23:35:31.269Z,99020.06
2023-01-30T23:38:19.367Z,99019.38
2023-01-30T23:40:52.335Z,99023.16
2023-01-30T23:43:23.991Z,99023.61
2023-01-30T23:45:56.186Z,99025.13
2023-01-30T23:48:28.335Z,99023.86
2023-01-30T23:51:03.150Z,99029.05
2023-01-30T23:53:33.092Z,99024.59
2023-01-30T23:56:05.675Z,99023.44
2023-01-30T23:58:38.751Z,99026.02
